CEB069 RPLL-RPVA
Flight info
| Callsign | CEB069 |
|---|---|
| Flight time | 1h 1m |
| Altitude | 310 |
| Route | IPATA2R IPATA B462 ARREX ARREX3R |
| Aircraft | A320/M-V/N |
Departure
| Time | 2026-04-23 21:26 |
|---|---|
| Airport | Ninoy Aquino International Airport (RPLL) |
Arrival
| Time | 2026-04-23 22:28 |
|---|---|
| Airport | Daniel Z. Romualdez Airport (RPVA) |
| Time | Latitude | Longitude | Altitude | Speed | Heading |
|---|---|---|---|---|---|
| 2026-04-23 21:05 | 14.50844 | 121.01305 | 62 ft | 0 kts | 330° |
| 2026-04-23 21:12 | 14.50830 | 121.01313 | 64 ft | 4 kts | 327° |
| 2026-04-23 21:12 | 14.50809 | 121.01330 | 63 ft | 4 kts | 317° |
| 2026-04-23 21:12 | 14.50791 | 121.01350 | 64 ft | 4 kts | 299° |
| 2026-04-23 21:12 | 14.50784 | 121.01374 | 65 ft | 4 kts | 253° |
| 2026-04-23 21:13 | 14.50794 | 121.01396 | 61 ft | 4 kts | 240° |
| 2026-04-23 21:13 | 14.50801 | 121.01409 | 59 ft | 0 kts | 240° |
| 2026-04-23 21:15 | 14.50801 | 121.01408 | 59 ft | 1 kts | 240° |
| 2026-04-23 21:15 | 14.50788 | 121.01385 | 61 ft | 6 kts | 242° |
| 2026-04-23 21:16 | 14.50762 | 121.01334 | 64 ft | 8 kts | 242° |
| 2026-04-23 21:16 | 14.50722 | 121.01312 | 69 ft | 6 kts | 182° |
| 2026-04-23 21:16 | 14.50690 | 121.01323 | 69 ft | 4 kts | 167° |
| 2026-04-23 21:16 | 14.50663 | 121.01307 | 67 ft | 5 kts | 230° |
| 2026-04-23 21:17 | 14.50646 | 121.01279 | 63 ft | 4 kts | 240° |
| 2026-04-23 21:17 | 14.50631 | 121.01252 | 61 ft | 5 kts | 239° |
| 2026-04-23 21:17 | 14.50606 | 121.01207 | 64 ft | 10 kts | 240° |
| 2026-04-23 21:17 | 14.50565 | 121.01134 | 64 ft | 13 kts | 239° |
| 2026-04-23 21:18 | 14.50518 | 121.01048 | 69 ft | 15 kts | 240° |
| 2026-04-23 21:18 | 14.50462 | 121.00949 | 63 ft | 17 kts | 239° |
| 2026-04-23 21:18 | 14.50399 | 121.00835 | 64 ft | 19 kts | 239° |
| 2026-04-23 21:18 | 14.50355 | 121.00757 | 58 ft | 7 kts | 240° |
| 2026-04-23 21:19 | 14.50334 | 121.00719 | 62 ft | 6 kts | 240° |
| 2026-04-23 21:19 | 14.50317 | 121.00689 | 66 ft | 4 kts | 240° |
| 2026-04-23 21:19 | 14.50305 | 121.00666 | 63 ft | 3 kts | 240° |
| 2026-04-23 21:19 | 14.50295 | 121.00649 | 58 ft | 4 kts | 240° |
| 2026-04-23 21:20 | 14.50284 | 121.00628 | 62 ft | 7 kts | 241° |
| 2026-04-23 21:20 | 14.50247 | 121.00554 | 64 ft | 16 kts | 242° |
| 2026-04-23 21:20 | 14.50174 | 121.00432 | 65 ft | 23 kts | 240° |
| 2026-04-23 21:20 | 14.50125 | 121.00343 | 64 ft | 13 kts | 241° |
| 2026-04-23 21:21 | 14.50085 | 121.00269 | 65 ft | 11 kts | 240° |
| 2026-04-23 21:21 | 14.50049 | 121.00207 | 68 ft | 9 kts | 238° |
| 2026-04-23 21:21 | 14.50018 | 121.00155 | 67 ft | 8 kts | 238° |
| 2026-04-23 21:21 | 14.49994 | 121.00113 | 65 ft | 6 kts | 239° |
| 2026-04-23 21:22 | 14.49976 | 121.00082 | 64 ft | 4 kts | 240° |
| 2026-04-23 21:22 | 14.49963 | 121.00060 | 69 ft | 3 kts | 240° |
| 2026-04-23 21:22 | 14.49955 | 121.00043 | 67 ft | 4 kts | 243° |
| 2026-04-23 21:22 | 14.49939 | 121.00012 | 63 ft | 5 kts | 242° |
| 2026-04-23 21:23 | 14.49921 | 120.99978 | 66 ft | 5 kts | 237° |
| 2026-04-23 21:23 | 14.49884 | 120.99964 | 67 ft | 7 kts | 172° |
| 2026-04-23 21:23 | 14.49847 | 120.99981 | 67 ft | 5 kts | 153° |
| 2026-04-23 21:23 | 14.49817 | 120.99998 | 64 ft | 6 kts | 147° |
| 2026-04-23 21:24 | 14.49804 | 121.00033 | 60 ft | 5 kts | 86° |
| 2026-04-23 21:24 | 14.49828 | 121.00082 | 65 ft | 10 kts | 60° |
| 2026-04-23 21:24 | 14.49862 | 121.00139 | 59 ft | 9 kts | 60° |
| 2026-04-23 21:24 | 14.49879 | 121.00169 | 65 ft | 0 kts | 60° |
| 2026-04-23 21:25 | 14.49924 | 121.00251 | 63 ft | 46 kts | 61° |
| 2026-04-23 21:25 | 14.50199 | 121.00752 | 65 ft | 112 kts | 60° |
| 2026-04-23 21:26 | 14.50669 | 121.01615 | 64 ft | 161 kts | 62° |
| 2026-04-23 21:26 | 14.51244 | 121.02693 | 465 ft | 175 kts | 62° |
| 2026-04-23 21:26 | 14.51823 | 121.03783 | 1133 ft | 177 kts | 62° |
| 2026-04-23 21:26 | 14.52406 | 121.04931 | 1769 ft | 183 kts | 63° |
| 2026-04-23 21:27 | 14.52967 | 121.06145 | 2356 ft | 192 kts | 68° |
| 2026-04-23 21:27 | 14.53256 | 121.07528 | 2901 ft | 202 kts | 86° |
| 2026-04-23 21:27 | 14.53213 | 121.09025 | 3418 ft | 214 kts | 97° |
| 2026-04-23 21:27 | 14.52851 | 121.10539 | 3909 ft | 230 kts | 116° |
| 2026-04-23 21:28 | 14.51816 | 121.11899 | 4260 ft | 254 kts | 134° |
| 2026-04-23 21:28 | 14.50537 | 121.13250 | 4859 ft | 267 kts | 134° |
| 2026-04-23 21:28 | 14.49230 | 121.14639 | 5665 ft | 271 kts | 134° |
| 2026-04-23 21:28 | 14.47933 | 121.16025 | 6468 ft | 275 kts | 133° |
| 2026-04-23 21:29 | 14.46598 | 121.17456 | 7229 ft | 279 kts | 134° |
| 2026-04-23 21:29 | 14.45263 | 121.18886 | 7985 ft | 282 kts | 134° |
| 2026-04-23 21:29 | 14.43888 | 121.20360 | 8746 ft | 286 kts | 134° |
| 2026-04-23 21:29 | 14.42494 | 121.21854 | 9507 ft | 290 kts | 134° |
| 2026-04-23 21:30 | 14.41081 | 121.23365 | 10202 ft | 295 kts | 134° |
| 2026-04-23 21:30 | 14.39607 | 121.24937 | 10463 ft | 317 kts | 134° |
| 2026-04-23 21:30 | 14.38018 | 121.26632 | 10772 ft | 333 kts | 134° |
| 2026-04-23 21:30 | 14.36384 | 121.28373 | 11288 ft | 342 kts | 134° |
| 2026-04-23 21:31 | 14.34730 | 121.30134 | 11906 ft | 347 kts | 134° |
| 2026-04-23 21:31 | 14.33040 | 121.31938 | 12539 ft | 351 kts | 134° |
| 2026-04-23 21:31 | 14.31328 | 121.33766 | 13179 ft | 355 kts | 133° |
| 2026-04-23 21:31 | 14.29600 | 121.35607 | 13803 ft | 359 kts | 133° |
| 2026-04-23 21:32 | 14.27852 | 121.37469 | 14344 ft | 362 kts | 134° |
| 2026-04-23 21:32 | 14.26112 | 121.39326 | 14877 ft | 365 kts | 134° |
| 2026-04-23 21:32 | 14.24333 | 121.41226 | 15391 ft | 369 kts | 134° |
| 2026-04-23 21:32 | 14.22539 | 121.43141 | 15906 ft | 373 kts | 134° |
| 2026-04-23 21:33 | 14.20722 | 121.45074 | 16436 ft | 376 kts | 134° |
| 2026-04-23 21:33 | 14.18893 | 121.47020 | 16958 ft | 379 kts | 134° |
| 2026-04-23 21:33 | 14.17052 | 121.48977 | 17483 ft | 382 kts | 134° |
| 2026-04-23 21:33 | 14.15213 | 121.50934 | 17991 ft | 385 kts | 134° |
| 2026-04-23 21:34 | 14.13340 | 121.52926 | 18450 ft | 389 kts | 135° |
| 2026-04-23 21:34 | 14.11455 | 121.54932 | 18898 ft | 391 kts | 135° |
| 2026-04-23 21:34 | 14.09531 | 121.56976 | 19365 ft | 393 kts | 135° |
| 2026-04-23 21:34 | 14.07626 | 121.59001 | 19816 ft | 395 kts | 135° |
| 2026-04-23 21:35 | 14.05711 | 121.61036 | 20247 ft | 397 kts | 135° |
| 2026-04-23 21:35 | 14.03807 | 121.63059 | 20688 ft | 400 kts | 135° |
| 2026-04-23 21:35 | 14.01842 | 121.65148 | 21116 ft | 402 kts | 135° |
| 2026-04-23 21:35 | 13.99890 | 121.67223 | 21563 ft | 404 kts | 135° |
| 2026-04-23 21:36 | 13.95961 | 121.71391 | 22430 ft | 408 kts | 135° |
| 2026-04-23 21:36 | 13.94002 | 121.73468 | 22843 ft | 410 kts | 135° |
| 2026-04-23 21:36 | 13.91982 | 121.75608 | 23256 ft | 413 kts | 135° |
| 2026-04-23 21:37 | 13.89974 | 121.77734 | 23636 ft | 415 kts | 135° |
| 2026-04-23 21:37 | 13.87976 | 121.79852 | 23964 ft | 417 kts | 135° |
| 2026-04-23 21:37 | 13.85961 | 121.82016 | 24297 ft | 420 kts | 133° |
| 2026-04-23 21:37 | 13.84015 | 121.84272 | 24638 ft | 422 kts | 131° |
| 2026-04-23 21:38 | 13.82129 | 121.86603 | 24971 ft | 424 kts | 130° |
| 2026-04-23 21:38 | 13.80272 | 121.88976 | 25303 ft | 426 kts | 129° |
| 2026-04-23 21:38 | 13.78418 | 121.91358 | 25644 ft | 428 kts | 129° |
| 2026-04-23 21:38 | 13.76538 | 121.93745 | 25962 ft | 430 kts | 130° |
| 2026-04-23 21:39 | 13.74633 | 121.96132 | 26286 ft | 432 kts | 130° |
| 2026-04-23 21:39 | 13.72709 | 121.98512 | 26612 ft | 434 kts | 130° |
| 2026-04-23 21:39 | 13.70758 | 122.00906 | 26926 ft | 436 kts | 130° |
| 2026-04-23 21:39 | 13.68805 | 122.03299 | 27236 ft | 438 kts | 130° |
| 2026-04-23 21:40 | 13.66863 | 122.05679 | 27544 ft | 440 kts | 130° |
| 2026-04-23 21:40 | 13.64895 | 122.08093 | 27843 ft | 442 kts | 130° |
| 2026-04-23 21:40 | 13.62924 | 122.10513 | 28137 ft | 444 kts | 130° |
| 2026-04-23 21:40 | 13.60929 | 122.12969 | 28443 ft | 446 kts | 130° |
| 2026-04-23 21:41 | 13.58937 | 122.15426 | 28735 ft | 449 kts | 130° |
| 2026-04-23 21:41 | 13.56909 | 122.17927 | 29029 ft | 451 kts | 130° |
| 2026-04-23 21:41 | 13.54923 | 122.20375 | 29310 ft | 453 kts | 130° |
| 2026-04-23 21:41 | 13.52902 | 122.22862 | 29590 ft | 455 kts | 130° |
| 2026-04-23 21:42 | 13.52847 | 122.22930 | 29598 ft | 455 kts | 130° |
| 2026-04-23 21:44 | 13.51648 | 122.24403 | 29778 ft | 456 kts | 130° |
| 2026-04-23 21:44 | 13.50475 | 122.25843 | 29932 ft | 457 kts | 130° |
| 2026-04-23 21:46 | 13.48464 | 122.28316 | 30172 ft | 459 kts | 130° |
| 2026-04-23 21:46 | 13.46412 | 122.30841 | 30373 ft | 461 kts | 130° |
| 2026-04-23 21:46 | 13.45049 | 122.32516 | 30532 ft | 462 kts | 131° |
| 2026-04-23 21:47 | 13.42310 | 122.35879 | 30819 ft | 464 kts | 131° |
| 2026-04-23 21:47 | 13.41116 | 122.37347 | 30894 ft | 465 kts | 131° |
| 2026-04-23 21:50 | 13.37712 | 122.41528 | 30945 ft | 444 kts | 131° |
| 2026-04-23 21:51 | 13.33823 | 122.46294 | 30944 ft | 435 kts | 131° |
| 2026-04-23 21:51 | 13.29947 | 122.51046 | 30945 ft | 434 kts | 131° |
| 2026-04-23 21:52 | 13.26067 | 122.55795 | 30948 ft | 434 kts | 131° |
| 2026-04-23 21:52 | 13.22188 | 122.60542 | 30945 ft | 434 kts | 131° |
| 2026-04-23 21:53 | 13.18315 | 122.65290 | 30932 ft | 434 kts | 131° |
| 2026-04-23 21:53 | 13.15275 | 122.69012 | 30931 ft | 434 kts | 131° |
| 2026-04-23 21:55 | 13.14170 | 122.70362 | 30934 ft | 434 kts | 131° |
| 2026-04-23 21:55 | 13.10287 | 122.75105 | 30933 ft | 433 kts | 131° |
| 2026-04-23 21:56 | 13.06409 | 122.79840 | 30935 ft | 433 kts | 131° |
| 2026-04-23 21:56 | 13.02538 | 122.84574 | 30932 ft | 433 kts | 131° |
| 2026-04-23 21:57 | 12.98671 | 122.89305 | 30926 ft | 433 kts | 131° |
| 2026-04-23 21:57 | 12.94793 | 122.94037 | 30926 ft | 433 kts | 131° |
| 2026-04-23 21:58 | 12.90922 | 122.98758 | 30926 ft | 433 kts | 131° |
| 2026-04-23 21:58 | 12.87045 | 123.03485 | 30926 ft | 433 kts | 131° |
| 2026-04-23 21:59 | 12.83169 | 123.08210 | 30925 ft | 433 kts | 131° |
| 2026-04-23 21:59 | 12.79289 | 123.12925 | 30926 ft | 433 kts | 131° |
| 2026-04-23 22:00 | 12.73489 | 123.19970 | 30924 ft | 433 kts | 131° |
| 2026-04-23 22:00 | 12.69608 | 123.24693 | 30925 ft | 433 kts | 131° |
| 2026-04-23 22:01 | 12.65730 | 123.29415 | 30928 ft | 433 kts | 131° |
| 2026-04-23 22:01 | 12.61841 | 123.34137 | 30928 ft | 433 kts | 131° |
| 2026-04-23 22:02 | 12.57951 | 123.38856 | 30928 ft | 433 kts | 131° |
| 2026-04-23 22:02 | 12.54061 | 123.43582 | 30928 ft | 433 kts | 131° |
| 2026-04-23 22:03 | 12.50170 | 123.48304 | 30927 ft | 433 kts | 131° |
| 2026-04-23 22:03 | 12.46281 | 123.53016 | 30927 ft | 433 kts | 131° |
| 2026-04-23 22:04 | 12.42388 | 123.57729 | 30928 ft | 434 kts | 131° |
| 2026-04-23 22:04 | 12.38518 | 123.62418 | 30657 ft | 425 kts | 131° |
| 2026-04-23 22:05 | 12.36663 | 123.64662 | 30540 ft | 412 kts | 131° |
| 2026-04-23 22:05 | 12.34814 | 123.66898 | 30351 ft | 402 kts | 131° |
| 2026-04-23 22:05 | 12.33026 | 123.69061 | 30130 ft | 397 kts | 130° |
| 2026-04-23 22:05 | 12.31270 | 123.71185 | 29883 ft | 395 kts | 130° |
| 2026-04-23 22:06 | 12.29498 | 123.73333 | 29626 ft | 393 kts | 130° |
| 2026-04-23 22:06 | 12.27713 | 123.75496 | 29357 ft | 391 kts | 130° |
| 2026-04-23 22:06 | 12.25982 | 123.77586 | 29099 ft | 389 kts | 130° |
| 2026-04-23 22:06 | 12.24213 | 123.79716 | 28831 ft | 387 kts | 130° |
| 2026-04-23 22:07 | 12.22473 | 123.81812 | 28576 ft | 386 kts | 130° |
| 2026-04-23 22:07 | 12.20763 | 123.83870 | 28324 ft | 384 kts | 130° |
| 2026-04-23 22:07 | 12.19018 | 123.85975 | 28068 ft | 382 kts | 130° |
| 2026-04-23 22:07 | 12.17326 | 123.88020 | 27819 ft | 380 kts | 130° |
| 2026-04-23 22:08 | 12.15627 | 123.90073 | 27574 ft | 377 kts | 130° |
| 2026-04-23 22:08 | 12.13939 | 123.92113 | 27333 ft | 375 kts | 130° |
| 2026-04-23 22:08 | 12.12256 | 123.94148 | 27085 ft | 373 kts | 130° |
| 2026-04-23 22:08 | 12.10586 | 123.96168 | 26839 ft | 371 kts | 130° |
| 2026-04-23 22:09 | 12.08924 | 123.98175 | 26603 ft | 370 kts | 130° |
| 2026-04-23 22:09 | 12.07268 | 124.00175 | 26367 ft | 368 kts | 130° |
| 2026-04-23 22:09 | 12.05617 | 124.02166 | 26029 ft | 366 kts | 130° |
| 2026-04-23 22:09 | 12.03970 | 124.04149 | 25607 ft | 365 kts | 130° |
| 2026-04-23 22:10 | 12.02329 | 124.06124 | 25161 ft | 364 kts | 130° |
| 2026-04-23 22:10 | 12.00696 | 124.08091 | 24721 ft | 363 kts | 130° |
| 2026-04-23 22:10 | 11.99066 | 124.10053 | 24326 ft | 361 kts | 130° |
| 2026-04-23 22:10 | 11.97468 | 124.11981 | 24167 ft | 348 kts | 130° |
| 2026-04-23 22:11 | 11.95930 | 124.13834 | 23769 ft | 337 kts | 130° |
| 2026-04-23 22:11 | 11.94424 | 124.15646 | 23210 ft | 332 kts | 130° |
| 2026-04-23 22:11 | 11.92938 | 124.17433 | 22578 ft | 328 kts | 130° |
| 2026-04-23 22:11 | 11.91464 | 124.19209 | 22084 ft | 329 kts | 130° |
| 2026-04-23 22:12 | 11.89987 | 124.20986 | 21669 ft | 329 kts | 130° |
| 2026-04-23 22:12 | 11.88506 | 124.22768 | 21247 ft | 328 kts | 130° |
| 2026-04-23 22:12 | 11.87031 | 124.24543 | 20872 ft | 328 kts | 130° |
| 2026-04-23 22:12 | 11.85574 | 124.26298 | 20540 ft | 322 kts | 130° |
| 2026-04-23 22:13 | 11.84145 | 124.28040 | 20079 ft | 318 kts | 129° |
| 2026-04-23 22:13 | 11.82724 | 124.29787 | 19688 ft | 320 kts | 129° |
| 2026-04-23 22:13 | 11.81313 | 124.31525 | 19300 ft | 315 kts | 129° |
| 2026-04-23 22:13 | 11.79916 | 124.33240 | 18924 ft | 313 kts | 129° |
| 2026-04-23 22:14 | 11.78533 | 124.34939 | 18550 ft | 310 kts | 129° |
| 2026-04-23 22:14 | 11.77159 | 124.36630 | 18174 ft | 309 kts | 130° |
| 2026-04-23 22:14 | 11.75787 | 124.38316 | 17776 ft | 308 kts | 130° |
| 2026-04-23 22:14 | 11.74425 | 124.39992 | 17398 ft | 307 kts | 129° |
| 2026-04-23 22:15 | 11.73064 | 124.41665 | 17040 ft | 305 kts | 130° |
| 2026-04-23 22:15 | 11.71710 | 124.43322 | 16681 ft | 303 kts | 130° |
| 2026-04-23 22:15 | 11.70362 | 124.44972 | 16326 ft | 302 kts | 129° |
| 2026-04-23 22:15 | 11.69024 | 124.46614 | 15975 ft | 300 kts | 130° |
| 2026-04-23 22:16 | 11.67689 | 124.48244 | 15628 ft | 299 kts | 130° |
| 2026-04-23 22:16 | 11.66360 | 124.49865 | 15276 ft | 297 kts | 130° |
| 2026-04-23 22:16 | 11.65036 | 124.51481 | 14941 ft | 296 kts | 129° |
| 2026-04-23 22:16 | 11.63725 | 124.53087 | 14606 ft | 294 kts | 129° |
| 2026-04-23 22:17 | 11.62423 | 124.54687 | 14263 ft | 293 kts | 129° |
| 2026-04-23 22:17 | 11.61123 | 124.56283 | 13923 ft | 292 kts | 129° |
| 2026-04-23 22:17 | 11.59844 | 124.57850 | 13563 ft | 290 kts | 129° |
| 2026-04-23 22:17 | 11.58540 | 124.59448 | 13207 ft | 289 kts | 129° |
| 2026-04-23 22:18 | 11.57258 | 124.61014 | 12868 ft | 287 kts | 129° |
| 2026-04-23 22:18 | 11.56000 | 124.62550 | 12528 ft | 285 kts | 129° |
| 2026-04-23 22:18 | 11.54734 | 124.64096 | 12193 ft | 283 kts | 129° |
| 2026-04-23 22:18 | 11.53460 | 124.65653 | 11840 ft | 281 kts | 129° |
| 2026-04-23 22:19 | 11.52224 | 124.67162 | 11495 ft | 280 kts | 129° |
| 2026-04-23 22:19 | 11.50968 | 124.68699 | 11151 ft | 278 kts | 129° |
| 2026-04-23 22:19 | 11.49885 | 124.70319 | 10851 ft | 275 kts | 116° |
| 2026-04-23 22:19 | 11.49160 | 124.72114 | 10514 ft | 273 kts | 109° |
| 2026-04-23 22:20 | 11.48524 | 124.73907 | 10174 ft | 272 kts | 110° |
| 2026-04-23 22:20 | 11.47879 | 124.75710 | 9815 ft | 270 kts | 110° |
| 2026-04-23 22:20 | 11.47227 | 124.77525 | 9435 ft | 268 kts | 110° |
| 2026-04-23 22:20 | 11.46594 | 124.79282 | 9079 ft | 266 kts | 110° |
| 2026-04-23 22:21 | 11.45950 | 124.81067 | 8723 ft | 265 kts | 110° |
| 2026-04-23 22:21 | 11.45317 | 124.82821 | 8353 ft | 263 kts | 110° |
| 2026-04-23 22:21 | 11.44691 | 124.84561 | 7990 ft | 261 kts | 110° |
| 2026-04-23 22:21 | 11.44068 | 124.86292 | 7633 ft | 259 kts | 110° |
| 2026-04-23 22:22 | 11.43451 | 124.88007 | 7243 ft | 257 kts | 109° |
| 2026-04-23 22:22 | 11.42838 | 124.89706 | 6881 ft | 255 kts | 110° |
| 2026-04-23 22:22 | 11.42228 | 124.91396 | 6519 ft | 253 kts | 110° |
| 2026-04-23 22:22 | 11.41631 | 124.93063 | 6302 ft | 243 kts | 108° |
| 2026-04-23 22:23 | 11.41294 | 124.94677 | 6015 ft | 231 kts | 94° |
| 2026-04-23 22:23 | 11.41189 | 124.96316 | 5561 ft | 227 kts | 94° |
| 2026-04-23 22:23 | 11.41086 | 124.97912 | 5121 ft | 224 kts | 94° |
| 2026-04-23 22:23 | 11.40984 | 124.99473 | 4873 ft | 213 kts | 94° |
| 2026-04-23 22:24 | 11.40888 | 125.00941 | 4660 ft | 204 kts | 94° |
| 2026-04-23 22:24 | 11.40629 | 125.02335 | 4311 ft | 200 kts | 116° |
| 2026-04-23 22:24 | 11.39740 | 125.03391 | 4000 ft | 198 kts | 146° |
| 2026-04-23 22:24 | 11.38435 | 125.03816 | 3666 ft | 201 kts | 177° |
| 2026-04-23 22:25 | 11.37015 | 125.03724 | 2848 ft | 218 kts | 182° |
| 2026-04-23 22:25 | 11.35498 | 125.03594 | 2205 ft | 226 kts | 181° |
| 2026-04-23 22:25 | 11.33926 | 125.03488 | 1932 ft | 215 kts | 180° |
| 2026-04-23 22:25 | 11.32515 | 125.03396 | 1957 ft | 194 kts | 180° |
| 2026-04-23 22:26 | 11.31226 | 125.03298 | 1486 ft | 183 kts | 182° |
| 2026-04-23 22:26 | 11.29969 | 125.03222 | 1055 ft | 172 kts | 181° |
| 2026-04-23 22:26 | 11.28837 | 125.03154 | 1012 ft | 160 kts | 182° |
| 2026-04-23 22:26 | 11.27728 | 125.03081 | 798 ft | 155 kts | 182° |
| 2026-04-23 22:27 | 11.26682 | 125.03018 | 638 ft | 151 kts | 181° |
| 2026-04-23 22:27 | 11.25636 | 125.02972 | 391 ft | 150 kts | 183° |
| 2026-04-23 22:27 | 11.24608 | 125.02896 | 229 ft | 148 kts | 184° |
| 2026-04-23 22:27 | 11.23583 | 125.02830 | 31 ft | 145 kts | 183° |
| 2026-04-23 22:28 | 11.22732 | 125.02774 | 13 ft | 85 kts | 184° |
| 2026-04-23 22:28 | 11.22390 | 125.02751 | 15 ft | 34 kts | 183° |
| 2026-04-23 22:28 | 11.22191 | 125.02748 | 16 ft | 19 kts | 167° |
| 2026-04-23 22:28 | 11.22169 | 125.02733 | 16 ft | 3 kts | 306° |